Time;durP1;ratioP1;P1;durP2;ratioP2;P2;SDS_P1;SDS_P2;PMS_P1;PMS_P2;Temp;Humidity;BMP_temperature;BMP_pressure;BME280_temperature;BME280_humidity;BME280_pressure;Samples;Min_cycle;Max_cycle;Signal;HPM_P1;HPM_P2
2022/03/10 07:37:15;;;;;;;15.68;10.03;;;;;;;2.00;54.54;99489.53;1784187;78;23851;-56
2022/03/10 07:39:41;;;;;;;11.55;7.67;;;;;;;2.44;51.98;99487.20;1719297;81;21060;-56
2022/03/10 07:42:07;;;;;;;14.07;9.38;;;;;;;4.01;52.39;99492.92;1701880;83;21820;-57
2022/03/10 07:44:33;;;;;;;12.20;8.13;;;;;;;4.09;51.21;99485.52;1706990;83;21138;-56
2022/03/10 07:46:59;;;;;;;18.27;12.13;;;;;;;4.30;43.46;99489.92;1713653;81;20957;-56
2022/03/10 07:49:25;;;;;;;9.65;7.10;;;;;;;4.81;46.71;99486.15;1698987;83;20894;-56
2022/03/10 07:51:50;;;;;;;18.25;13.22;;;;;;;4.40;43.59;99502.42;1707477;83;20973;-57
2022/03/10 07:54:16;;;;;;;11.48;9.25;;;;;;;4.72;47.78;99495.97;1697544;83;21081;-56
2022/03/10 07:56:42;;;;;;;12.40;9.45;;;;;;;4.79;43.74;99500.31;1724160;82;20938;-57
2022/03/10 07:59:11;;;;;;;15.83;12.55;;;;;;;4.20;41.54;99508.27;1701937;83;20866;-57
2022/03/10 08:01:37;;;;;;;141.25;66.05;;;;;;;6.03;40.85;99503.98;1701916;82;21048;-57
2022/03/10 08:04:04;;;;;;;98.80;49.67;;;;;;;6.49;39.78;99501.03;1707952;83;21179;-56
2022/03/10 08:06:30;;;;;;;101.10;50.92;;;;;;;6.87;39.96;99494.77;1734415;81;21823;-56
2022/03/10 08:08:56;;;;;;;60.63;27.80;;;;;;;7.71;36.84;99498.19;1702281;83;20885;-57
2022/03/10 08:11:22;;;;;;;74.25;36.40;;;;;;;8.29;37.20;99492.27;1709710;83;20921;-57
2022/03/10 08:13:48;;;;;;;96.75;42.70;;;;;;;8.16;36.01;99497.31;1704435;83;20873;-56
2022/03/10 08:16:14;;;;;;;41.35;20.75;;;;;;;7.51;36.27;99499.73;1706454;82;21594;-57
2022/03/10 08:18:40;;;;;;;8.35;5.92;;;;;;;9.03;36.21;99484.70;1707679;83;21087;-56
2022/03/10 08:21:06;;;;;;;73.92;36.53;;;;;;;6.45;32.13;99499.83;1705122;83;21694;-57
2022/03/10 08:23:32;;;;;;;58.28;29.57;;;;;;;6.93;33.80;99497.41;1703282;83;21021;-57
2022/03/10 08:25:58;;;;;;;34.63;19.05;;;;;;;7.32;30.76;99500.25;1706229;82;20929;-57
2022/03/10 08:28:26;;;;;;;14.78;8.20;;;;;;;6.70;30.53;99507.95;1709657;83;21007;-56
2022/03/10 08:30:51;;;;;;;16.97;8.78;;;;;;;4.91;33.57;99506.39;1702463;82;21124;-56
2022/03/10 08:33:17;;;;;;;11.57;7.10;;;;;;;3.68;36.69;99505.70;1708791;83;20889;-56
2022/03/10 08:35:43;;;;;;;14.87;7.12;;;;;;;2.36;39.68;99507.39;1697101;83;20977;-56
2022/03/10 08:38:09;;;;;;;11.65;7.22;;;;;;;4.20;38.40;99514.98;1688949;83;20866;-56
2022/03/10 08:40:35;;;;;;;12.88;8.78;;;;;;;4.65;37.08;99509.89;1688942;83;20945;-57
2022/03/10 08:43:01;;;;;;;15.83;10.85;;;;;;;6.22;36.73;99499.84;1689669;83;21148;-57
2022/03/10 08:45:27;;;;;;;14.05;9.75;;;;;;;7.39;34.60;99502.06;1690637;83;20906;-56
2022/03/10 08:47:54;;;;;;;41.70;24.45;;;;;;;8.08;34.92;99507.08;1748596;80;20886;-57
2022/03/10 08:50:21;;;;;;;31.27;19.12;;;;;;;6.26;35.33;99506.16;1752019;80;21116;-57
2022/03/10 08:52:47;;;;;;;9.10;6.70;;;;;;;4.67;38.19;99505.97;1750581;80;21732;-57
2022/03/10 08:55:13;;;;;;;9.58;7.75;;;;;;;3.39;40.04;99504.91;1746904;80;21083;-57
2022/03/10 08:57:39;;;;;;;10.75;7.90;;;;;;;4.81;39.94;99507.64;1742756;80;20889;-55
2022/03/10 09:00:07;;;;;;;11.08;6.65;;;;;;;5.31;37.59;99513.91;1745004;80;21057;-57
2022/03/10 09:02:33;;;;;;;8.93;6.17;;;;;;;4.98;37.75;99514.77;1747546;80;21038;-57
2022/03/10 09:04:59;;;;;;;12.25;5.90;;;;;;;6.00;37.73;99519.23;1743055;80;20961;-57
2022/03/10 09:07:25;;;;;;;15.88;7.97;;;;;;;5.55;37.29;99514.56;1745554;80;21726;-56
2022/03/10 09:09:51;;;;;;;9.63;6.72;;;;;;;4.44;39.31;99521.62;1749356;80;20870;-56
2022/03/10 09:12:17;;;;;;;10.23;5.72;;;;;;;4.19;40.34;99523.55;1749008;80;20976;-56
2022/03/10 09:14:43;;;;;;;11.18;7.05;;;;;;;3.84;40.46;99527.30;1719459;82;20879;-56
2022/03/10 09:17:09;;;;;;;8.95;5.62;;;;;;;2.95;41.92;99523.98;1743943;80;21452;-56
2022/03/10 09:19:35;;;;;;;19.65;7.42;;;;;;;2.45;42.50;99521.78;1745391;80;21495;-55
2022/03/10 09:22:02;;;;;;;8.33;4.83;;;;;;;2.46;43.16;99518.59;1742517;80;21636;-56
2022/03/10 09:24:30;;;;;;;12.07;7.20;;;;;;;1.76;44.29;99525.43;1744330;80;21068;-56
2022/03/10 09:26:56;;;;;;;11.68;6.37;;;;;;;1.31;43.81;99525.95;1708644;82;21419;-56
2022/03/10 09:29:22;;;;;;;20.17;9.45;;;;;;;0.76;45.45;99528.47;1747668;80;21066;-55
2022/03/10 09:31:48;;;;;;;30.50;13.83;;;;;;;1.16;44.02;99527.78;1744359;80;21109;-56
2022/03/10 09:34:14;;;;;;;18.80;9.78;;;;;;;1.00;45.17;99534.11;1746454;80;21096;-56
2022/03/10 09:36:40;;;;;;;11.28;6.47;;;;;;;0.96;44.63;99530.66;1752153;80;21040;-56
2022/03/10 09:39:06;;;;;;;8.85;5.20;;;;;;;0.79;46.25;99533.47;1751561;80;20881;-56
2022/03/10 09:41:32;;;;;;;14.45;7.83;;;;;;;0.27;47.26;99526.20;1746011;80;20977;-56
2022/03/10 09:43:59;;;;;;;13.20;5.72;;;;;;;0.27;47.83;99536.04;1744312;80;21007;-57
2022/03/10 09:46:25;;;;;;;16.00;6.72;;;;;;;0.13;48.12;99535.45;1747844;80;21102;-58
2022/03/10 09:48:52;;;;;;;10.68;5.00;;;;;;;0.26;47.64;99537.05;1690747;82;20985;-58
2022/03/10 09:51:21;;;;;;;11.97;6.15;;;;;;;0.38;46.93;99533.45;1715332;80;21022;-58
2022/03/10 09:53:47;;;;;;;11.88;6.42;;;;;;;0.20;47.76;99536.41;1750490;80;21538;-57
2022/03/10 09:56:13;;;;;;;18.35;7.90;;;;;;;0.22;47.10;99538.39;1739707;80;21033;-58
2022/03/10 09:58:39;;;;;;;7.42;4.28;;;;;;;0.44;46.91;99539.42;1718306;82;21447;-55
2022/03/10 10:01:08;;;;;;;16.93;8.65;;;;;;;0.74;45.63;99527.83;1709995;82;20941;-55
2022/03/10 10:03:33;;;;;;;;;;;;;;;0.26;44.47;99540.55;1752922;80;21049;-58
2022/03/10 10:06:01;;;;;;;8.83;5.17;;;;;;;0.47;46.18;99540.39;1753598;80;20332;-57
2022/03/10 10:08:28;;;;;;;9.05;5.45;;;;;;;0.11;47.13;99540.14;1705538;82;21214;-58
2022/03/10 10:10:56;;;;;;;11.83;6.40;;;;;;;0.22;47.27;99546.39;1750158;80;21451;-58
2022/03/10 10:13:37;;;;;;;13.15;7.53;;;;;;;0.12;46.42;99545.28;1764718;80;21439;-58
2022/03/10 10:16:06;;;;;;;11.33;5.78;;;;;;;0.30;46.39;99538.84;1744583;80;20994;-58
2022/03/10 10:18:34;;;;;;;8.83;5.53;;;;;;;0.35;48.42;99543.98;1741960;80;21025;-58
2022/03/10 10:21:00;;;;;;;13.30;6.47;;;;;;;0.27;46.58;99547.53;1742231;80;21393;-57
2022/03/10 10:23:31;;;;;;;9.65;5.67;;;;;;;0.28;47.15;99544.36;1752254;80;21017;-56
2022/03/10 10:26:05;;;;;;;11.18;6.55;;;;;;;0.25;46.28;99549.52;1748470;79;21717;-56
2022/03/10 10:28:38;;;;;;;10.10;5.75;;;;;;;0.41;47.01;99547.76;1741263;81;21068;-56
2022/03/10 10:31:10;;;;;;;11.78;6.00;;;;;;;0.31;46.28;99540.00;1743781;80;21135;-55
2022/03/10 10:33:37;;;;;;;8.48;5.15;;;;;;;0.58;47.68;99553.81;1742286;80;21382;-56
2022/03/10 10:36:23;;;;;;;9.40;5.35;;;;;;;0.71;47.73;99557.55;1750030;80;21166;-56
2022/03/10 10:38:48;;;;;;;9.15;4.92;;;;;;;0.67;47.06;99569.58;1744153;80;21112;-56
2022/03/10 10:41:31;;;;;;;9.75;5.10;;;;;;;0.63;46.62;99562.95;1748320;80;21072;-55
2022/03/10 10:44:06;;;;;;;8.60;5.28;;;;;;;0.68;46.60;99565.89;1707420;82;21103;-58
2022/03/10 10:46:35;;;;;;;8.83;4.50;;;;;;;0.66;44.60;99569.25;1745526;80;22604;-58
2022/03/10 10:49:11;;;;;;;11.45;5.62;;;;;;;0.73;45.12;99566.70;1750555;80;21534;-57
2022/03/10 10:51:46;;;;;;;7.15;4.33;;;;;;;0.56;47.05;99574.00;1741178;80;20990;-57
2022/03/10 10:54:25;;;;;;;25.48;11.33;;;;;;;0.48;46.24;99562.88;1747464;80;21104;-58
2022/03/10 10:56:56;;;;;;;37.70;11.83;;;;;;;0.43;46.87;99571.11;1745285;80;21052;-58
2022/03/10 10:59:34;;;;;;;32.90;12.85;;;;;;;0.52;44.68;99565.54;1756394;80;21300;-58
2022/03/10 11:02:18;;;;;;;13.10;6.33;;;;;;;0.47;44.82;99570.56;1747667;80;20998;-58
2022/03/10 11:04:48;;;;;;;13.85;6.75;;;;;;;0.52;46.58;99569.54;1749881;80;21045;-57
2022/03/10 11:07:14;;;;;;;16.20;8.45;;;;;;;0.59;44.66;99564.30;1740096;82;21072;-58
2022/03/10 11:09:43;;;;;;;12.73;5.75;;;;;;;0.61;44.36;99566.81;1744823;80;21072;-58
2022/03/10 11:12:10;;;;;;;15.63;6.20;;;;;;;0.63;45.24;99570.12;1758062;80;21109;-57
2022/03/10 11:14:37;;;;;;;11.18;6.55;;;;;;;0.61;44.21;99566.31;1741205;82;21535;-57
2022/03/10 11:17:03;;;;;;;11.48;6.42;;;;;;;0.71;43.61;99562.06;1740663;80;21002;-58
2022/03/10 11:19:41;;;;;;;7.17;4.45;;;;;;;0.68;44.06;99566.41;1744389;80;21079;-58
2022/03/10 11:22:32;;;;;;;11.65;6.42;;;;;;;0.78;43.92;99561.17;1722992;82;21556;-58
2022/03/10 11:25:18;;;;;;;;;;;;;;;0.63;43.17;99560.28;1747475;80;21544;-57
2022/03/10 11:27:58;;;;;;;12.73;5.55;;;;;;;0.63;44.13;99564.79;1746128;80;20148;-58
2022/03/10 11:30:25;;;;;;;8.75;5.10;;;;;;;0.63;42.88;99572.28;1745061;80;21108;-58
2022/03/10 11:33:12;;;;;;;9.68;5.78;;;;;;;0.81;42.79;99569.31;1726075;80;21033;-58
2022/03/10 11:35:42;;;;;;;8.85;4.05;;;;;;;0.65;41.94;99564.09;1748237;80;21095;-57
2022/03/10 11:38:11;;;;;;;7.53;4.58;;;;;;;0.27;41.01;99579.53;1741045;80;21121;-57
2022/03/10 11:40:52;;;;;;;7.40;5.25;;;;;;;0.27;42.66;99568.86;1747540;80;21817;-58
2022/03/10 11:43:36;;;;;;;8.50;4.60;;;;;;;0.15;42.64;99568.92;1744459;80;21013;-57
2022/03/10 11:46:23;;;;;;;10.70;6.10;;;;;;;0.31;43.70;99567.17;1735854;80;21033;-57
2022/03/10 11:49:14;;;;;;;12.13;6.40;;;;;;;0.43;44.07;99579.11;1719443;80;21097;-56
2022/03/10 11:51:55;;;;;;;11.25;6.03;;;;;;;0.58;43.58;99582.65;1728793;80;21444;-57
2022/03/10 11:54:27;;;;;;;8.33;5.05;;;;;;;0.54;43.02;99581.36;1694710;83;21502;-56
2022/03/10 11:57:03;;;;;;;12.20;6.03;;;;;;;0.37;41.21;99580.63;1680847;83;21049;-56
2022/03/10 11:59:39;;;;;;;10.00;4.95;;;;;;;0.59;43.38;99569.63;1752539;80;21120;-56
2022/03/10 12:02:05;;;;;;;7.42;4.37;;;;;;;0.63;44.05;99571.46;1743049;80;21040;-56
2022/03/10 12:04:38;;;;;;;9.75;5.78;;;;;;;0.71;43.14;99577.56;1742103;80;21461;-57
2022/03/10 12:07:15;;;;;;;8.23;5.45;;;;;;;0.63;42.68;99577.62;1752861;78;21596;-56
2022/03/10 12:09:45;;;;;;;9.48;4.92;;;;;;;0.64;42.86;99577.12;1745528;80;21007;-56
2022/03/10 12:12:25;;;;;;;8.68;5.40;;;;;;;0.33;43.89;99571.81;1740859;80;21159;-56
2022/03/10 12:14:55;;;;;;;9.73;4.75;;;;;;;0.39;44.64;99567.12;1742463;80;22304;-56
2022/03/10 12:17:44;;;;;;;12.43;5.40;;;;;;;0.48;44.74;99567.39;1740841;80;21231;-56
2022/03/10 12:20:14;;;;;;;7.95;5.40;;;;;;;0.70;44.53;99569.74;1745268;80;21588;-56
2022/03/10 12:22:41;;;;;;;17.57;5.15;;;;;;;0.69;44.71;99576.92;1744908;80;21061;-57
2022/03/10 12:25:21;;;;;;;9.20;4.53;;;;;;;0.76;44.62;99572.50;1744634;80;21052;-55
2022/03/10 12:27:53;;;;;;;8.53;4.40;;;;;;;0.68;43.14;99561.89;1748298;80;21412;-57
2022/03/10 12:30:26;;;;;;;8.88;4.90;;;;;;;0.34;43.10;99566.80;1745775;80;21740;-56
2022/03/10 12:32:55;;;;;;;9.80;4.47;;;;;;;0.19;44.00;99568.08;1743648;80;21069;-56
2022/03/10 12:35:26;;;;;;;13.98;5.08;;;;;;;0.21;44.63;99562.89;1743558;80;21462;-56
2022/03/10 12:37:52;;;;;;;9.18;5.05;;;;;;;0.50;45.72;99568.86;1746963;80;21077;-57
2022/03/10 12:40:19;;;;;;;6.83;4.87;;;;;;;0.49;43.93;99572.54;1751872;80;20903;-57
2022/03/10 12:42:46;;;;;;;9.25;4.97;;;;;;;0.22;43.89;99569.88;1745468;80;21066;-56
2022/03/10 12:45:19;;;;;;;7.78;5.22;;;;;;;0.51;44.78;99563.88;1742503;80;21061;-56
2022/03/10 12:47:48;;;;;;;7.83;4.42;;;;;;;0.69;43.67;99571.59;1758225;80;21037;-56
2022/03/10 12:50:14;;;;;;;6.42;4.08;;;;;;;0.69;42.35;99567.58;1741070;80;21059;-55
2022/03/10 12:52:40;;;;;;;9.90;5.70;;;;;;;0.75;42.96;99562.02;1762511;80;20875;-56
2022/03/10 12:55:09;;;;;;;9.68;4.70;;;;;;;0.69;42.37;99576.09;1763235;80;22118;-56
2022/03/10 12:57:39;;;;;;;8.63;4.62;;;;;;;0.54;41.53;99570.69;1739085;80;21013;-57
2022/03/10 13:00:22;;;;;;;8.55;5.10;;;;;;;0.44;41.79;99569.59;1744530;80;21068;-56
2022/03/10 13:02:48;;;;;;;16.77;9.08;;;;;;;0.40;41.75;99579.44;1743328;80;21136;-56
2022/03/10 13:05:22;;;;;;;12.45;7.35;;;;;;;0.60;42.66;99576.66;1759528;80;20970;-57
2022/03/10 13:07:47;;;;;;;13.20;5.08;;;;;;;0.51;42.30;99573.22;1750139;80;21105;-56
2022/03/10 13:10:17;;;;;;;7.90;4.17;;;;;;;0.63;42.67;99582.95;1743773;80;21433;-56
2022/03/10 13:12:46;;;;;;;14.47;6.85;;;;;;;0.48;40.96;99569.55;1742448;80;20979;-55
2022/03/10 13:15:22;;;;;;;11.08;6.97;;;;;;;0.69;41.90;99572.09;1743622;80;20983;-55
2022/03/10 13:17:49;;;;;;;9.75;5.50;;;;;;;0.53;39.71;99569.86;1744043;80;21037;-56
2022/03/10 13:20:23;;;;;;;10.15;6.15;;;;;;;0.48;39.92;99568.72;1744958;80;21840;-56
2022/03/10 13:22:55;;;;;;;36.40;20.30;;;;;;;0.68;41.37;99565.89;1740067;80;20996;-55
2022/03/10 13:25:23;;;;;;;12.88;7.95;;;;;;;0.65;41.13;99564.93;1747220;80;21148;-56
2022/03/10 13:27:50;;;;;;;13.95;7.65;;;;;;;0.83;41.80;99554.77;1746301;80;21045;-56
2022/03/10 13:30:22;;;;;;;7.45;5.45;;;;;;;1.03;41.92;99560.45;1742571;80;21487;-56
2022/03/10 13:32:48;;;;;;;7.90;4.37;;;;;;;1.05;41.80;99554.42;1748236;80;21112;-56
2022/03/10 13:35:14;;;;;;;12.55;5.87;;;;;;;0.93;41.22;99561.19;1756843;80;21069;-56
2022/03/10 13:37:41;;;;;;;8.05;4.50;;;;;;;1.01;41.62;99556.28;1753670;80;20980;-55
2022/03/10 13:40:08;;;;;;;11.70;5.17;;;;;;;1.00;41.88;99555.46;1745839;80;21556;-56
2022/03/10 13:42:34;;;;;;;21.68;4.90;;;;;;;1.06;42.17;99556.08;1710383;82;21111;-56
2022/03/10 13:45:08;;;;;;;7.50;4.28;;;;;;;1.13;41.12;99555.69;1748680;80;21080;-55
2022/03/10 13:47:51;;;;;;;10.65;5.25;;;;;;;0.87;39.33;99573.95;1760165;80;21608;-57
2022/03/10 13:50:32;;;;;;;10.03;7.50;;;;;;;0.72;39.53;99569.88;1758547;80;21053;-56
2022/03/10 13:53:00;;;;;;;16.20;5.08;;;;;;;0.72;40.41;99565.05;1693518;82;21060;-56
2022/03/10 13:55:35;;;;;;;9.88;5.08;;;;;;;0.76;41.28;99567.17;1745186;80;21459;-57
2022/03/10 13:58:03;;;;;;;6.50;3.85;;;;;;;0.79;41.48;99558.83;1744442;80;21991;-56
2022/03/10 14:00:35;;;;;;;11.25;4.80;;;;;;;0.87;40.87;99564.60;1747902;80;21047;-56
2022/03/10 14:03:10;;;;;;;10.25;4.97;;;;;;;0.92;40.62;99554.70;1758506;80;21037;-56
2022/03/10 14:05:48;;;;;;;8.40;4.55;;;;;;;0.88;40.84;99553.42;1751142;80;21037;-55
2022/03/10 14:08:24;;;;;;;11.57;5.00;;;;;;;0.90;41.38;99549.55;1750395;80;22050;-55
2022/03/10 14:11:05;;;;;;;13.05;5.15;;;;;;;0.84;41.79;99541.75;1741986;82;22244;-57
2022/03/10 14:13:38;;;;;;;10.55;5.25;;;;;;;0.95;41.51;99545.84;1747510;81;21443;-56
2022/03/10 14:16:06;;;;;;;10.70;5.78;;;;;;;1.06;40.97;99548.58;1740837;80;21160;-55
2022/03/10 14:18:32;;;;;;;12.07;4.80;;;;;;;0.97;40.34;99549.16;1757669;80;21016;-56
2022/03/10 14:21:08;;;;;;;9.73;4.65;;;;;;;0.86;40.41;99547.44;1709006;82;21104;-56
2022/03/10 14:23:34;;;;;;;15.43;5.95;;;;;;;0.84;40.69;99547.59;1742487;80;21129;-57
2022/03/10 14:26:12;;;;;;;9.03;5.35;;;;;;;0.85;41.01;99547.91;1754821;80;20937;-57
2022/03/10 14:28:42;;;;;;;12.58;6.75;;;;;;;0.89;40.99;99555.91;1757394;80;21061;-57
2022/03/10 14:31:17;;;;;;;37.90;14.78;;;;;;;0.67;40.25;99555.41;1746717;80;21077;-56
2022/03/10 14:33:45;;;;;;;24.85;13.43;;;;;;;0.75;41.26;99558.84;1742930;82;21138;-56
2022/03/10 14:36:12;;;;;;;19.32;9.78;;;;;;;0.84;41.04;99546.26;1742852;80;21678;-56
2022/03/10 14:38:39;;;;;;;33.25;18.10;;;;;;;0.77;41.06;99546.17;1753367;80;21021;-56
2022/03/10 14:41:06;;;;;;;27.70;13.98;;;;;;;0.88;41.10;99542.74;1763628;80;21025;-57
2022/03/10 14:43:32;;;;;;;8.38;5.50;;;;;;;1.28;40.62;99539.69;1758501;80;20985;-57
2022/03/10 14:45:59;;;;;;;36.42;18.85;;;;;;;2.52;37.02;99535.23;1750935;80;20997;-56
2022/03/10 14:48:26;;;;;;;14.43;9.68;;;;;;;4.08;39.42;99528.64;1743752;81;20985;-57
2022/03/10 14:50:53;;;;;;;19.98;10.95;;;;;;;5.55;34.74;99532.04;1746122;80;20935;-57
2022/03/10 14:53:19;;;;;;;23.35;12.53;;;;;;;6.61;36.00;99534.84;1749214;80;20970;-57
2022/03/10 14:55:45;;;;;;;14.95;7.35;;;;;;;5.98;32.46;99534.73;1750852;80;21492;-57
2022/03/10 14:58:11;;;;;;;12.70;7.60;;;;;;;5.29;32.92;99536.13;1748461;80;20941;-57
2022/03/10 15:00:37;;;;;;;13.28;7.33;;;;;;;5.16;35.89;99532.12;1753128;80;22223;-57
2022/03/10 15:03:05;;;;;;;15.60;6.92;;;;;;;4.00;36.58;99553.78;1752545;80;20929;-56
2022/03/10 15:05:32;;;;;;;10.38;8.70;;;;;;;3.83;36.30;99546.59;1752759;80;20990;-57
2022/03/10 15:07:58;;;;;;;8.78;6.30;;;;;;;4.09;33.76;99545.88;1752024;80;21023;-57
2022/03/10 15:10:24;;;;;;;8.58;5.78;;;;;;;4.33;33.05;99549.88;1744504;80;21006;-57
2022/03/10 15:12:50;;;;;;;8.45;4.97;;;;;;;3.77;33.62;99545.24;1744067;81;21524;-57
2022/03/10 15:15:16;;;;;;;10.95;6.67;;;;;;;3.36;34.59;99550.87;1752134;80;20874;-56
2022/03/10 15:17:42;;;;;;;11.78;6.33;;;;;;;3.59;34.73;99540.38;1743773;81;21442;-57
2022/03/10 15:20:10;;;;;;;10.18;5.70;;;;;;;3.30;35.62;99544.13;1744092;82;21041;-57
2022/03/10 15:22:54;;;;;;;11.15;7.80;;;;;;;3.44;35.06;99548.56;1744397;80;21013;-57
2022/03/10 15:25:32;;;;;;;19.77;9.08;;;;;;;4.43;35.45;99553.52;1750317;80;22208;-57
2022/03/10 15:28:01;;;;;;;13.08;9.28;;;;;;;4.76;32.92;99544.19;1767856;80;20993;-56
2022/03/10 15:30:31;;;;;;;8.53;5.50;;;;;;;5.43;32.75;99547.70;1769827;80;21010;-56
2022/03/10 15:32:57;;;;;;;11.35;5.87;;;;;;;3.94;33.90;99547.39;1773420;80;21009;-56
2022/03/10 15:35:25;;;;;;;13.10;7.05;;;;;;;2.98;35.48;99548.20;1766501;79;21852;-57
2022/03/10 15:37:51;;;;;;;9.35;5.50;;;;;;;2.36;36.27;99554.20;1774667;80;20990;-57
2022/03/10 15:40:19;;;;;;;9.50;6.62;;;;;;;1.94;36.74;99556.60;1764172;80;21427;-58
2022/03/10 15:42:45;;;;;;;12.20;6.33;;;;;;;1.31;38.34;99552.66;1746162;80;21068;-56
2022/03/10 15:45:16;;;;;;;12.37;7.58;;;;;;;1.46;38.20;99558.53;1744084;80;21061;-56
2022/03/10 15:47:43;;;;;;;13.95;6.78;;;;;;;1.09;39.66;99551.70;1760523;80;20962;-58
2022/03/10 15:50:09;;;;;;;11.20;8.05;;;;;;;0.93;40.61;99561.19;1763917;80;21456;-57
2022/03/10 15:52:35;;;;;;;15.13;8.33;;;;;;;0.93;39.25;99565.20;1758560;80;20993;-57
2022/03/10 15:55:05;;;;;;;10.30;5.92;;;;;;;0.71;40.29;99570.89;1747497;80;21006;-57
2022/03/10 15:57:31;;;;;;;11.75;7.08;;;;;;;0.60;40.12;99575.33;1743606;80;21405;-57
2022/03/10 15:59:58;;;;;;;15.28;8.60;;;;;;;0.34;40.23;99573.47;1743069;82;20855;-57
2022/03/10 16:02:27;;;;;;;26.75;16.02;;;;;;;0.13;40.92;99570.11;1743210;81;21437;-57
2022/03/10 16:04:53;;;;;;;21.20;11.83;;;;;;;0.17;40.46;99582.06;1743519;80;21053;-57
2022/03/10 16:07:23;;;;;;;26.80;14.60;;;;;;;-0.11;40.91;99591.03;1746080;80;20985;-56
2022/03/10 16:09:52;;;;;;;16.42;8.98;;;;;;;-0.06;40.48;99584.70;1748659;80;21372;-57
2022/03/10 16:12:19;;;;;;;18.95;6.67;;;;;;;-0.18;41.27;99588.72;1748476;80;21027;-56
2022/03/10 16:14:45;;;;;;;28.92;16.73;;;;;;;-0.35;41.92;99594.61;1747791;80;22272;-57
2022/03/10 16:17:13;;;;;;;29.65;13.83;;;;;;;-0.38;41.97;99600.29;1745488;80;20863;-57
2022/03/10 16:19:39;;;;;;;16.48;10.32;;;;;;;-0.48;42.72;99599.66;1743674;81;21014;-57
2022/03/10 16:22:04;;;;;;;24.20;13.13;;;;;;;-0.50;42.22;99605.16;1771397;80;20982;-57
2022/03/10 16:24:30;;;;;;;21.10;8.15;;;;;;;-0.51;43.63;99606.64;1772973;80;20961;-57
2022/03/10 16:26:57;;;;;;;25.77;14.35;;;;;;;-0.60;43.18;99612.48;1752717;80;21542;-57
2022/03/10 16:29:24;;;;;;;23.60;14.47;;;;;;;-0.64;43.42;99611.17;1744158;82;20969;-58
2022/03/10 16:31:50;;;;;;;56.90;29.85;;;;;;;-0.68;44.04;99607.20;1744168;81;21516;-57
2022/03/10 16:34:16;;;;;;;60.03;26.00;;;;;;;-0.70;43.62;99611.33;1744263;82;20978;-58
2022/03/10 16:36:42;;;;;;;78.60;30.85;;;;;;;-0.76;45.14;99609.38;1744556;81;21612;-57
2022/03/10 16:39:10;;;;;;;71.77;36.00;;;;;;;-0.74;43.24;99618.01;1744233;82;21556;-56
2022/03/10 16:41:36;;;;;;;20.77;11.85;;;;;;;-0.79;43.51;99616.84;1743735;81;21454;-56
2022/03/10 16:44:03;;;;;;;16.35;9.33;;;;;;;-0.85;44.03;99625.02;1751112;81;20906;-56
2022/03/10 16:46:31;;;;;;;20.17;10.88;;;;;;;-0.93;45.01;99627.68;1701988;84;20962;-56
2022/03/10 16:48:57;;;;;;;15.60;7.47;;;;;;;-0.97;44.66;99625.00;1700683;84;21010;-56
2022/03/10 16:51:23;;;;;;;34.53;14.45;;;;;;;-1.02;45.63;99620.70;1748578;81;21542;-56
2022/03/10 16:53:50;;;;;;;36.80;17.70;;;;;;;-1.03;46.93;99630.48;1744279;81;20867;-56
2022/03/10 16:56:17;;;;;;;21.25;9.60;;;;;;;-1.06;46.16;99627.33;1744207;82;21034;-56
2022/03/10 16:58:43;;;;;;;27.70;12.00;;;;;;;-1.14;46.01;99625.00;1745700;80;21003;-56
2022/03/10 17:01:09;;;;;;;24.12;12.05;;;;;;;-1.15;46.07;99631.32;1756848;80;21025;-55
2022/03/10 17:03:35;;;;;;;35.60;17.80;;;;;;;-1.17;45.83;99630.66;1743964;81;21404;-55
2022/03/10 17:06:00;;;;;;;17.40;8.43;;;;;;;-1.20;46.39;99636.33;1759937;80;20860;-55
2022/03/10 17:08:27;;;;;;;39.80;16.60;;;;;;;-1.25;46.37;99629.82;1774888;80;20910;-56
2022/03/10 17:10:54;;;;;;;15.83;7.97;;;;;;;-1.27;47.00;99632.66;1763670;80;21001;-56
2022/03/10 17:13:20;;;;;;;25.70;10.68;;;;;;;-1.32;47.05;99632.30;1760277;81;21081;-55
2022/03/10 17:15:46;;;;;;;13.72;7.85;;;;;;;-1.30;46.35;99642.27;1759392;80;21407;-55
2022/03/10 17:18:12;;;;;;;26.82;10.18;;;;;;;-1.36;46.88;99641.62;1774291;80;20989;-56
2022/03/10 17:20:38;;;;;;;18.52;9.65;;;;;;;-1.43;47.33;99641.94;1760005;80;21482;-56
2022/03/10 17:23:04;;;;;;;45.83;20.97;;;;;;;-1.41;47.48;99635.95;1742746;82;20879;-57
2022/03/10 17:25:32;;;;;;;23.07;13.72;;;;;;;-1.42;47.93;99647.08;1743072;82;20863;-56
2022/03/10 17:27:59;;;;;;;35.08;11.75;;;;;;;-1.42;47.49;99648.91;1742878;81;21588;-56
2022/03/10 17:30:25;;;;;;;22.77;9.93;;;;;;;-1.45;47.82;99639.94;1750530;80;21426;-57
2022/03/10 17:32:52;;;;;;;21.95;10.85;;;;;;;-1.50;47.40;99650.22;1773510;80;21991;-56
2022/03/10 17:35:18;;;;;;;20.20;11.15;;;;;;;-1.52;47.78;99653.55;1765062;80;21073;-56
2022/03/10 17:37:44;;;;;;;34.30;16.45;;;;;;;-1.55;48.09;99659.17;1743001;81;21002;-55
2022/03/10 17:40:10;;;;;;;23.75;11.85;;;;;;;-1.59;48.84;99656.52;1744322;80;21509;-59
2022/03/10 17:42:37;;;;;;;40.92;16.80;;;;;;;-1.61;48.32;99662.00;1743756;82;21361;-56
2022/03/10 17:45:04;;;;;;;238.30;74.03;;;;;;;-1.65;50.54;99660.64;1744545;80;20907;-56
2022/03/10 17:47:30;;;;;;;144.97;54.75;;;;;;;-1.64;47.91;99664.13;1774264;80;21412;-55
2022/03/10 17:49:58;;;;;;;103.80;42.45;;;;;;;-1.69;47.86;99665.96;1769620;80;20870;-56
2022/03/10 17:52:24;;;;;;;42.00;21.05;;;;;;;-1.73;48.97;99669.91;1743703;82;21478;-56
2022/03/10 17:54:50;;;;;;;168.15;63.90;;;;;;;-1.87;49.65;99669.22;1746272;80;20997;-55
2022/03/10 17:57:16;;;;;;;57.25;26.07;;;;;;;-1.88;50.53;99676.36;1744406;81;20982;-56
2022/03/10 17:59:42;;;;;;;79.92;34.90;;;;;;;-1.91;50.51;99675.83;1744117;80;20995;-55
2022/03/10 18:02:09;;;;;;;168.85;64.87;;;;;;;-1.95;50.22;99671.84;1744238;81;21018;-56
2022/03/10 18:04:35;;;;;;;201.30;80.25;;;;;;;-1.94;49.25;99676.16;1722933;82;21703;-55
2022/03/10 18:07:01;;;;;;;117.40;46.23;;;;;;;-1.94;49.20;99674.33;1746748;80;21091;-56
2022/03/10 18:09:29;;;;;;;71.17;33.48;;;;;;;-1.97;50.32;99676.45;1744111;81;21028;-56
2022/03/10 18:11:58;;;;;;;74.27;33.23;;;;;;;-2.02;50.47;99683.09;1744313;81;21002;-56
2022/03/10 18:14:24;;;;;;;62.33;29.57;;;;;;;-2.09;50.67;99679.40;1744327;82;21018;-57
2022/03/10 18:16:50;;;;;;;43.55;18.23;;;;;;;-2.11;51.13;99681.39;1744159;82;21096;-57
2022/03/10 18:19:16;;;;;;;36.08;17.48;;;;;;;-2.11;51.21;99682.72;1744319;82;20874;-57
2022/03/10 18:21:42;;;;;;;40.40;16.52;;;;;;;-2.12;51.01;99685.04;1743895;81;20982;-57
2022/03/10 18:24:09;;;;;;;33.60;15.83;;;;;;;-2.21;51.55;99685.16;1744007;82;20946;-57
2022/03/10 18:26:36;;;;;;;39.13;16.00;;;;;;;-2.24;52.04;99690.76;1744196;81;21054;-57
2022/03/10 18:29:03;;;;;;;46.05;19.20;;;;;;;-2.22;50.62;99686.12;1743974;82;23287;-56
2022/03/10 18:31:29;;;;;;;40.83;16.90;;;;;;;-2.26;50.99;99692.25;1743667;81;20960;-56
2022/03/10 18:33:55;;;;;;;37.05;17.17;;;;;;;-2.33;52.19;99690.71;1744043;82;21419;-55
2022/03/10 18:36:21;;;;;;;33.48;14.25;;;;;;;-2.30;50.84;99691.74;1743781;82;21665;-56
2022/03/10 18:38:47;;;;;;;25.88;12.98;;;;;;;-2.32;51.00;99687.56;1743841;81;21073;-56
2022/03/10 18:41:14;;;;;;;38.15;16.75;;;;;;;-2.33;50.83;99691.20;1744216;82;21079;-56
2022/03/10 18:43:42;;;;;;;46.98;18.80;;;;;;;-2.40;52.48;99698.13;1745118;81;20997;-56
2022/03/10 18:46:08;;;;;;;43.92;16.73;;;;;;;-2.41;52.35;99691.98;1745011;82;20918;-56
2022/03/10 18:48:34;;;;;;;34.33;18.98;;;;;;;-2.43;52.71;99694.47;1743866;81;21004;-56
2022/03/10 18:51:01;;;;;;;38.92;16.60;;;;;;;-2.43;52.54;99698.45;1744140;82;21660;-56
2022/03/10 18:53:27;;;;;;;34.08;16.17;;;;;;;-2.46;53.39;99701.42;1743918;82;21010;-56
2022/03/10 18:55:53;;;;;;;43.73;17.57;;;;;;;-2.47;53.52;99713.87;1744112;82;21412;-56
2022/03/10 18:58:19;;;;;;;42.48;18.10;;;;;;;-2.50;53.24;99711.50;1744198;81;20973;-55
2022/03/10 19:00:45;;;;;;;43.87;18.12;;;;;;;-2.55;53.99;99711.15;1743928;82;20863;-56
2022/03/10 19:03:11;;;;;;;52.05;22.05;;;;;;;-2.55;53.21;99716.46;1744154;81;21009;-56
2022/03/10 19:05:37;;;;;;;60.60;33.05;;;;;;;-2.59;53.44;99714.59;1744005;82;21782;-56
2022/03/10 19:08:04;;;;;;;56.25;30.12;;;;;;;-2.62;53.97;99715.41;1743861;81;21693;-56
2022/03/10 19:10:32;;;;;;;191.37;71.15;;;;;;;-2.65;53.27;99716.55;1746232;80;20974;-56
2022/03/10 19:12:59;;;;;;;98.85;42.73;;;;;;;-2.62;52.42;99716.73;1744103;81;20991;-56
2022/03/10 19:15:26;;;;;;;238.15;97.40;;;;;;;-2.64;52.47;99712.91;1743952;82;21416;-55